sensor_id;sensor_type;location;lat;lon;timestamp;pressure;altitude;pressure_sealevel;temperature;humidity
78839;BME280;68405;47.190;27.558;2024-03-02T00:01:17;100020.83;;;6.84;66.61
78839;BME280;68405;47.190;27.558;2024-03-02T00:03:48;100023.42;;;6.83;65.65
78839;BME280;68405;47.190;27.558;2024-03-02T00:06:16;100023.07;;;6.83;66.05
78839;BME280;68405;47.190;27.558;2024-03-02T00:08:48;100020.36;;;6.80;66.01
78839;BME280;68405;47.190;27.558;2024-03-02T00:11:17;100019.68;;;6.79;65.63
78839;BME280;68405;47.190;27.558;2024-03-02T00:13:47;100023.13;;;6.79;65.27
78839;BME280;68405;47.190;27.558;2024-03-02T00:16:16;100015.20;;;6.79;65.56
78839;BME280;68405;47.190;27.558;2024-03-02T00:18:46;100015.58;;;6.77;65.94
78839;BME280;68405;47.190;27.558;2024-03-02T00:21:15;100016.65;;;6.74;66.24
78839;BME280;68405;47.190;27.558;2024-03-02T00:23:49;100013.93;;;6.72;65.83
78839;BME280;68405;47.190;27.558;2024-03-02T00:26:20;100011.72;;;6.70;66.01
78839;BME280;68405;47.190;27.558;2024-03-02T00:28:49;100008.83;;;6.67;65.81
78839;BME280;68405;47.190;27.558;2024-03-02T00:31:20;100010.08;;;6.65;65.73
78839;BME280;68405;47.190;27.558;2024-03-02T00:33:50;100004.97;;;6.61;65.93
78839;BME280;68405;47.190;27.558;2024-03-02T00:36:24;100007.80;;;6.56;66.29
78839;BME280;68405;47.190;27.558;2024-03-02T00:38:54;99999.92;;;6.52;65.72
78839;BME280;68405;47.190;27.558;2024-03-02T00:41:25;100004.30;;;6.49;66.17
78839;BME280;68405;47.190;27.558;2024-03-02T00:44:00;99999.71;;;6.43;65.91
78839;BME280;68405;47.190;27.558;2024-03-02T00:46:32;99993.38;;;6.41;65.84
78839;BME280;68405;47.190;27.558;2024-03-02T00:49:03;99985.84;;;6.37;66.17
78839;BME280;68405;47.190;27.558;2024-03-02T00:51:33;99975.02;;;6.34;66.66
78839;BME280;68405;47.190;27.558;2024-03-02T00:54:05;99972.23;;;6.35;65.91
78839;BME280;68405;47.190;27.558;2024-03-02T00:56:35;99966.39;;;6.35;66.04
78839;BME280;68405;47.190;27.558;2024-03-02T00:59:04;99968.11;;;6.35;65.77
78839;BME280;68405;47.190;27.558;2024-03-02T01:01:33;99961.38;;;6.36;65.77
78839;BME280;68405;47.190;27.558;2024-03-02T01:04:02;99954.33;;;6.34;66.03
78839;BME280;68405;47.190;27.558;2024-03-02T01:06:32;99950.89;;;6.33;65.56
78839;BME280;68405;47.190;27.558;2024-03-02T01:09:00;99958.66;;;6.33;65.53
78839;BME280;68405;47.190;27.558;2024-03-02T01:11:30;99958.70;;;6.30;66.19
78839;BME280;68405;47.190;27.558;2024-03-02T01:13:59;99957.20;;;6.26;65.78
78839;BME280;68405;47.190;27.558;2024-03-02T01:16:28;99956.52;;;6.26;65.66
78839;BME280;68405;47.190;27.558;2024-03-02T01:18:57;99951.71;;;6.24;66.41
78839;BME280;68405;47.190;27.558;2024-03-02T01:21:26;99944.64;;;6.24;66.07
78839;BME280;68405;47.190;27.558;2024-03-02T01:23:54;99945.55;;;6.21;66.73
78839;BME280;68405;47.190;27.558;2024-03-02T01:26:22;99941.57;;;6.22;66.19
78839;BME280;68405;47.190;27.558;2024-03-02T01:28:50;99941.61;;;6.20;65.99
78839;BME280;68405;47.190;27.558;2024-03-02T01:31:18;99937.48;;;6.19;65.74
78839;BME280;68405;47.190;27.558;2024-03-02T01:33:47;99933.38;;;6.17;65.85
78839;BME280;68405;47.190;27.558;2024-03-02T01:36:16;99935.64;;;6.15;65.92
78839;BME280;68405;47.190;27.558;2024-03-02T01:38:45;99931.73;;;6.12;65.94
78839;BME280;68405;47.190;27.558;2024-03-02T01:41:14;99930.85;;;6.12;66.06
78839;BME280;68405;47.190;27.558;2024-03-02T01:43:42;99937.92;;;6.13;65.71
78839;BME280;68405;47.190;27.558;2024-03-02T01:46:12;99933.42;;;6.14;65.51
78839;BME280;68405;47.190;27.558;2024-03-02T01:48:41;99933.92;;;6.15;65.62
78839;BME280;68405;47.190;27.558;2024-03-02T01:51:10;99932.52;;;6.16;65.66
78839;BME280;68405;47.190;27.558;2024-03-02T01:53:39;99924.08;;;6.15;65.63
78839;BME280;68405;47.190;27.558;2024-03-02T01:56:08;99923.55;;;6.16;65.48
78839;BME280;68405;47.190;27.558;2024-03-02T01:58:37;99914.11;;;6.15;66.26
78839;BME280;68405;47.190;27.558;2024-03-02T02:01:06;99914.27;;;6.14;65.81
78839;BME280;68405;47.190;27.558;2024-03-02T02:03:35;99914.08;;;6.17;65.77
78839;BME280;68405;47.190;27.558;2024-03-02T02:06:05;99910.98;;;6.16;65.91
78839;BME280;68405;47.190;27.558;2024-03-02T02:08:34;99906.17;;;6.15;65.80
78839;BME280;68405;47.190;27.558;2024-03-02T02:11:03;99912.38;;;6.14;65.91
78839;BME280;68405;47.190;27.558;2024-03-02T02:13:32;99909.29;;;6.13;66.03
78839;BME280;68405;47.190;27.558;2024-03-02T02:16:07;99912.41;;;6.11;65.86
78839;BME280;68405;47.190;27.558;2024-03-02T02:18:36;99912.60;;;6.11;65.90
78839;BME280;68405;47.190;27.558;2024-03-02T02:21:05;99913.63;;;6.11;65.82
78839;BME280;68405;47.190;27.558;2024-03-02T02:23:34;99915.35;;;6.11;65.98
78839;BME280;68405;47.190;27.558;2024-03-02T02:26:03;99916.54;;;6.12;66.03
78839;BME280;68405;47.190;27.558;2024-03-02T02:28:32;99911.88;;;6.13;65.91
78839;BME280;68405;47.190;27.558;2024-03-02T02:31:00;99912.74;;;6.12;65.83
78839;BME280;68405;47.190;27.558;2024-03-02T02:33:28;99911.08;;;6.09;66.34
78839;BME280;68405;47.190;27.558;2024-03-02T02:35:57;99907.21;;;6.02;67.36
78839;BME280;68405;47.190;27.558;2024-03-02T02:38:26;99902.59;;;6.01;66.75
78839;BME280;68405;47.190;27.558;2024-03-02T02:40:55;99903.59;;;6.02;66.72
78839;BME280;68405;47.190;27.558;2024-03-02T02:43:24;99902.67;;;6.05;66.72
78839;BME280;68405;47.190;27.558;2024-03-02T02:45:53;99898.05;;;6.04;66.61
78839;BME280;68405;47.190;27.558;2024-03-02T02:48:22;99902.95;;;5.98;66.61
78839;BME280;68405;47.190;27.558;2024-03-02T02:50:50;99907.96;;;5.97;66.12
78839;BME280;68405;47.190;27.558;2024-03-02T02:53:19;99905.94;;;5.93;66.32
78839;BME280;68405;47.190;27.558;2024-03-02T02:55:48;99899.15;;;5.86;67.24
78839;BME280;68405;47.190;27.558;2024-03-02T02:58:17;99898.67;;;5.84;66.87
78839;BME280;68405;47.190;27.558;2024-03-02T03:00:46;99902.41;;;5.87;66.30
78839;BME280;68405;47.190;27.558;2024-03-02T03:03:15;99902.90;;;5.89;66.04
78839;BME280;68405;47.190;27.558;2024-03-02T03:05:44;99897.20;;;5.90;66.85
78839;BME280;68405;47.190;27.558;2024-03-02T03:08:12;99899.23;;;5.92;66.56
78839;BME280;68405;47.190;27.558;2024-03-02T03:10:41;99901.30;;;5.93;66.27
78839;BME280;68405;47.190;27.558;2024-03-02T03:13:10;99894.93;;;5.92;66.95
78839;BME280;68405;47.190;27.558;2024-03-02T03:15:39;99895.77;;;5.94;66.55
78839;BME280;68405;47.190;27.558;2024-03-02T03:18:08;99896.11;;;5.94;66.86
78839;BME280;68405;47.190;27.558;2024-03-02T03:20:38;99897.63;;;5.95;66.48
78839;BME280;68405;47.190;27.558;2024-03-02T03:23:07;99894.85;;;5.98;66.48
78839;BME280;68405;47.190;27.558;2024-03-02T03:25:36;99892.44;;;5.99;66.90
78839;BME280;68405;47.190;27.558;2024-03-02T03:28:06;99894.67;;;5.99;66.96
78839;BME280;68405;47.190;27.558;2024-03-02T03:30:35;99893.98;;;5.98;66.94
78839;BME280;68405;47.190;27.558;2024-03-02T03:33:04;99884.67;;;5.97;66.77
78839;BME280;68405;47.190;27.558;2024-03-02T03:35:34;99882.23;;;6.01;66.68
78839;BME280;68405;47.190;27.558;2024-03-02T03:38:03;99876.52;;;6.04;66.63
78839;BME280;68405;47.190;27.558;2024-03-02T03:40:32;99875.48;;;6.03;67.09
78839;BME280;68405;47.190;27.558;2024-03-02T03:42:59;99878.23;;;6.04;66.48
78839;BME280;68405;47.190;27.558;2024-03-02T03:45:28;99875.27;;;6.05;66.88
78839;BME280;68405;47.190;27.558;2024-03-02T03:47:58;99872.73;;;6.04;66.58
78839;BME280;68405;47.190;27.558;2024-03-02T03:50:27;99870.68;;;6.01;66.64
78839;BME280;68405;47.190;27.558;2024-03-02T03:52:56;99869.30;;;6.02;66.62
78839;BME280;68405;47.190;27.558;2024-03-02T03:55:25;99866.73;;;6.00;66.65
78839;BME280;68405;47.190;27.558;2024-03-02T03:57:54;99863.17;;;5.95;66.66
78839;BME280;68405;47.190;27.558;2024-03-02T04:00:23;99862.34;;;5.93;66.61
78839;BME280;68405;47.190;27.558;2024-03-02T04:02:51;99860.06;;;5.95;66.35
78839;BME280;68405;47.190;27.558;2024-03-02T04:05:20;99856.10;;;5.95;66.49
78839;BME280;68405;47.190;27.558;2024-03-02T04:07:49;99857.63;;;5.96;66.31
78839;BME280;68405;47.190;27.558;2024-03-02T04:10:18;99860.20;;;5.97;66.17
78839;BME280;68405;47.190;27.558;2024-03-02T04:12:50;99859.00;;;5.97;65.96
78839;BME280;68405;47.190;27.558;2024-03-02T04:15:19;99860.05;;;5.96;66.03
78839;BME280;68405;47.190;27.558;2024-03-02T04:17:47;99861.45;;;5.94;66.10
78839;BME280;68405;47.190;27.558;2024-03-02T04:20:15;99863.68;;;5.95;66.07
78839;BME280;68405;47.190;27.558;2024-03-02T04:22:44;99869.77;;;5.92;65.72
78839;BME280;68405;47.190;27.558;2024-03-02T04:25:11;99865.84;;;5.89;65.88
78839;BME280;68405;47.190;27.558;2024-03-02T04:27:40;99862.98;;;5.84;65.73
78839;BME280;68405;47.190;27.558;2024-03-02T04:30:10;99863.55;;;5.81;65.53
78839;BME280;68405;47.190;27.558;2024-03-02T04:32:40;99859.27;;;5.79;65.52
78839;BME280;68405;47.190;27.558;2024-03-02T04:35:09;99856.35;;;5.78;65.48
78839;BME280;68405;47.190;27.558;2024-03-02T04:37:38;99856.73;;;5.75;65.45
78839;BME280;68405;47.190;27.558;2024-03-02T04:40:09;99855.19;;;5.75;65.64
78839;BME280;68405;47.190;27.558;2024-03-02T04:42:38;99857.08;;;5.76;65.41
78839;BME280;68405;47.190;27.558;2024-03-02T04:45:08;99858.81;;;5.76;65.47
78839;BME280;68405;47.190;27.558;2024-03-02T04:47:37;99858.08;;;5.78;65.42
78839;BME280;68405;47.190;27.558;2024-03-02T04:50:08;99860.67;;;5.78;65.41
78839;BME280;68405;47.190;27.558;2024-03-02T04:52:37;99861.55;;;5.77;65.31
78839;BME280;68405;47.190;27.558;2024-03-02T04:55:05;99858.27;;;5.77;65.35
78839;BME280;68405;47.190;27.558;2024-03-02T04:57:57;99861.89;;;5.77;65.22
78839;BME280;68405;47.190;27.558;2024-03-02T05:00:26;99861.88;;;5.78;65.24
78839;BME280;68405;47.190;27.558;2024-03-02T05:02:55;99867.21;;;5.78;65.28
78839;BME280;68405;47.190;27.558;2024-03-02T05:05:24;99876.86;;;5.77;65.29
78839;BME280;68405;47.190;27.558;2024-03-02T05:07:53;99868.61;;;5.77;65.12
78839;BME280;68405;47.190;27.558;2024-03-02T05:10:22;99875.65;;;5.79;65.18
78839;BME280;68405;47.190;27.558;2024-03-02T05:12:52;99879.40;;;5.81;65.19
78839;BME280;68405;47.190;27.558;2024-03-02T05:15:27;99885.73;;;5.85;65.20
78839;BME280;68405;47.190;27.558;2024-03-02T05:17:56;99879.04;;;5.82;65.03
78839;BME280;68405;47.190;27.558;2024-03-02T05:20:26;99879.70;;;5.85;64.96
78839;BME280;68405;47.190;27.558;2024-03-02T05:22:55;99882.62;;;5.86;65.19
78839;BME280;68405;47.190;27.558;2024-03-02T05:25:24;99883.79;;;5.88;65.07
78839;BME280;68405;47.190;27.558;2024-03-02T05:27:53;99882.35;;;5.92;65.06
78839;BME280;68405;47.190;27.558;2024-03-02T05:30:21;99881.48;;;5.92;64.96
78839;BME280;68405;47.190;27.558;2024-03-02T05:32:50;99888.15;;;5.96;65.06
78839;BME280;68405;47.190;27.558;2024-03-02T05:35:19;99889.50;;;5.99;65.05
78839;BME280;68405;47.190;27.558;2024-03-02T05:37:48;99886.70;;;6.02;64.90
78839;BME280;68405;47.190;27.558;2024-03-02T05:40:17;99895.61;;;6.06;65.08
78839;BME280;68405;47.190;27.558;2024-03-02T05:42:46;99893.15;;;6.08;65.03
78839;BME280;68405;47.190;27.558;2024-03-02T05:45:15;99893.73;;;6.16;65.08
78839;BME280;68405;47.190;27.558;2024-03-02T05:47:44;99894.97;;;6.24;64.97
78839;BME280;68405;47.190;27.558;2024-03-02T05:50:13;99891.65;;;6.27;64.60
78839;BME280;68405;47.190;27.558;2024-03-02T05:52:42;99894.73;;;6.28;65.19
78839;BME280;68405;47.190;27.558;2024-03-02T05:55:11;99894.59;;;6.37;65.13
78839;BME280;68405;47.190;27.558;2024-03-02T05:57:40;99894.27;;;6.45;64.64
78839;BME280;68405;47.190;27.558;2024-03-02T06:00:21;99898.61;;;6.53;64.88
78839;BME280;68405;47.190;27.558;2024-03-02T06:02:50;99905.95;;;6.59;65.06
78839;BME280;68405;47.190;27.558;2024-03-02T06:05:18;99899.49;;;6.62;64.92
78839;BME280;68405;47.190;27.558;2024-03-02T06:07:47;99895.33;;;6.64;64.61
78839;BME280;68405;47.190;27.558;2024-03-02T06:10:16;99898.02;;;6.68;64.69
78839;BME280;68405;47.190;27.558;2024-03-02T06:12:45;99903.42;;;6.74;64.54
78839;BME280;68405;47.190;27.558;2024-03-02T06:15:14;99905.27;;;6.77;64.30
78839;BME280;68405;47.190;27.558;2024-03-02T06:17:43;99910.38;;;6.82;64.22
78839;BME280;68405;47.190;27.558;2024-03-02T06:20:12;99909.79;;;6.85;64.11
78839;BME280;68405;47.190;27.558;2024-03-02T06:22:41;99904.88;;;6.89;63.83
78839;BME280;68405;47.190;27.558;2024-03-02T06:25:10;99904.83;;;6.92;63.76
78839;BME280;68405;47.190;27.558;2024-03-02T06:27:39;99911.70;;;6.93;63.61
78839;BME280;68405;47.190;27.558;2024-03-02T06:30:09;99908.35;;;6.97;63.57
78839;BME280;68405;47.190;27.558;2024-03-02T06:32:38;99911.08;;;6.99;63.33
78839;BME280;68405;47.190;27.558;2024-03-02T06:35:06;99905.17;;;7.01;62.55
78839;BME280;68405;47.190;27.558;2024-03-02T06:37:38;99908.61;;;7.01;62.65
78839;BME280;68405;47.190;27.558;2024-03-02T06:40:09;99907.02;;;7.03;62.50
78839;BME280;68405;47.190;27.558;2024-03-02T06:42:38;99911.50;;;7.13;62.57
78839;BME280;68405;47.190;27.558;2024-03-02T06:45:07;99907.49;;;7.14;62.00
78839;BME280;68405;47.190;27.558;2024-03-02T06:47:36;99907.92;;;7.19;62.38
78839;BME280;68405;47.190;27.558;2024-03-02T06:50:06;99906.61;;;7.24;61.63
78839;BME280;68405;47.190;27.558;2024-03-02T06:52:35;99905.63;;;7.30;61.83
78839;BME280;68405;47.190;27.558;2024-03-02T06:55:05;99903.46;;;7.34;61.89
78839;BME280;68405;47.190;27.558;2024-03-02T06:57:34;99907.96;;;7.42;61.37
78839;BME280;68405;47.190;27.558;2024-03-02T07:00:04;99909.20;;;7.49;61.98
78839;BME280;68405;47.190;27.558;2024-03-02T07:02:34;99909.08;;;7.55;61.68
78839;BME280;68405;47.190;27.558;2024-03-02T07:05:04;99905.19;;;7.59;61.57
78839;BME280;68405;47.190;27.558;2024-03-02T07:07:34;99905.73;;;7.66;60.66
78839;BME280;68405;47.190;27.558;2024-03-02T07:10:06;99908.78;;;7.76;61.14
78839;BME280;68405;47.190;27.558;2024-03-02T07:12:35;99915.69;;;7.84;60.13
78839;BME280;68405;47.190;27.558;2024-03-02T07:15:06;99915.15;;;7.93;60.48
78839;BME280;68405;47.190;27.558;2024-03-02T07:17:57;99912.94;;;7.99;59.81
78839;BME280;68405;47.190;27.558;2024-03-02T07:20:25;99916.48;;;8.17;60.70
78839;BME280;68405;47.190;27.558;2024-03-02T07:22:54;99916.15;;;8.24;60.08
78839;BME280;68405;47.190;27.558;2024-03-02T07:25:23;99915.32;;;8.37;60.46
78839;BME280;68405;47.190;27.558;2024-03-02T07:27:52;99915.09;;;8.47;60.69
78839;BME280;68405;47.190;27.558;2024-03-02T07:30:21;99918.27;;;8.58;60.60
78839;BME280;68405;47.190;27.558;2024-03-02T07:32:51;99926.51;;;8.68;60.33
78839;BME280;68405;47.190;27.558;2024-03-02T07:35:20;99922.28;;;8.70;59.93
78839;BME280;68405;47.190;27.558;2024-03-02T07:37:50;99919.98;;;8.79;59.87
78839;BME280;68405;47.190;27.558;2024-03-02T07:40:19;99919.85;;;8.84;59.60
78839;BME280;68405;47.190;27.558;2024-03-02T07:42:48;99919.81;;;8.92;59.61
78839;BME280;68405;47.190;27.558;2024-03-02T07:45:17;99914.92;;;9.00;59.29
78839;BME280;68405;47.190;27.558;2024-03-02T07:47:46;99913.00;;;9.07;58.98
78839;BME280;68405;47.190;27.558;2024-03-02T07:50:15;99919.40;;;9.13;59.10
78839;BME280;68405;47.190;27.558;2024-03-02T07:52:44;99920.93;;;9.20;59.45
78839;BME280;68405;47.190;27.558;2024-03-02T07:55:13;99919.95;;;9.31;58.33
78839;BME280;68405;47.190;27.558;2024-03-02T07:57:42;99915.40;;;9.32;58.54
78839;BME280;68405;47.190;27.558;2024-03-02T08:00:12;99917.02;;;9.36;57.38
78839;BME280;68405;47.190;27.558;2024-03-02T08:02:42;99916.13;;;9.37;57.87
78839;BME280;68405;47.190;27.558;2024-03-02T08:05:11;99914.20;;;9.32;56.59
78839;BME280;68405;47.190;27.558;2024-03-02T08:07:40;99912.35;;;9.36;56.29
78839;BME280;68405;47.190;27.558;2024-03-02T08:10:10;99918.48;;;9.46;57.70
78839;BME280;68405;47.190;27.558;2024-03-02T08:12:38;99919.44;;;9.54;57.53
78839;BME280;68405;47.190;27.558;2024-03-02T08:15:08;99908.92;;;9.52;57.19
78839;BME280;68405;47.190;27.558;2024-03-02T08:17:37;99906.92;;;9.62;56.41
78839;BME280;68405;47.190;27.558;2024-03-02T08:20:08;99902.19;;;9.57;54.98
78839;BME280;68405;47.190;27.558;2024-03-02T08:22:37;99902.56;;;9.68;55.37
78839;BME280;68405;47.190;27.558;2024-03-02T08:25:07;99906.35;;;9.80;55.86
78839;BME280;68405;47.190;27.558;2024-03-02T08:27:37;99905.89;;;9.89;56.08
78839;BME280;68405;47.190;27.558;2024-03-02T08:30:08;99900.48;;;9.90;54.75
78839;BME280;68405;47.190;27.558;2024-03-02T08:32:38;99904.70;;;9.94;54.48
78839;BME280;68405;47.190;27.558;2024-03-02T08:35:08;99903.61;;;9.90;54.89
78839;BME280;68405;47.190;27.558;2024-03-02T08:37:40;99900.45;;;9.86;55.83
78839;BME280;68405;47.190;27.558;2024-03-02T08:40:11;99902.33;;;9.87;55.98
78839;BME280;68405;47.190;27.558;2024-03-02T08:42:40;99905.52;;;9.91;55.62
78839;BME280;68405;47.190;27.558;2024-03-02T08:45:10;99904.99;;;9.80;55.15
78839;BME280;68405;47.190;27.558;2024-03-02T08:47:39;99896.04;;;9.65;55.26
78839;BME280;68405;47.190;27.558;2024-03-02T08:50:09;99894.58;;;9.62;54.71
78839;BME280;68405;47.190;27.558;2024-03-02T08:52:37;99896.39;;;9.48;54.55
78839;BME280;68405;47.190;27.558;2024-03-02T08:55:08;99891.23;;;9.29;54.39
78839;BME280;68405;47.190;27.558;2024-03-02T08:57:37;99891.94;;;9.34;55.05
78839;BME280;68405;47.190;27.558;2024-03-02T09:00:08;99890.63;;;9.38;54.83
78839;BME280;68405;47.190;27.558;2024-03-02T09:02:37;99888.20;;;9.31;54.37
78839;BME280;68405;47.190;27.558;2024-03-02T09:05:08;99889.70;;;9.28;54.53
78839;BME280;68405;47.190;27.558;2024-03-02T09:07:37;99887.27;;;9.23;53.83
78839;BME280;68405;47.190;27.558;2024-03-02T09:10:08;99885.10;;;9.19;54.11
78839;BME280;68405;47.190;27.558;2024-03-02T09:12:38;99885.91;;;9.21;54.24
78839;BME280;68405;47.190;27.558;2024-03-02T09:15:08;99883.83;;;9.21;54.71
78839;BME280;68405;47.190;27.558;2024-03-02T09:17:36;99882.75;;;9.29;54.44
78839;BME280;68405;47.190;27.558;2024-03-02T09:20:07;99890.13;;;9.37;54.52
78839;BME280;68405;47.190;27.558;2024-03-02T09:22:35;99885.95;;;9.43;54.07
78839;BME280;68405;47.190;27.558;2024-03-02T09:25:05;99888.09;;;9.53;54.74
78839;BME280;68405;47.190;27.558;2024-03-02T09:27:37;99889.01;;;9.68;54.42
78839;BME280;68405;47.190;27.558;2024-03-02T09:30:09;99886.66;;;9.77;54.06
78839;BME280;68405;47.190;27.558;2024-03-02T09:32:38;99887.90;;;9.88;54.24
78839;BME280;68405;47.190;27.558;2024-03-02T09:35:07;99889.23;;;9.95;53.93
78839;BME280;68405;47.190;27.558;2024-03-02T09:37:36;99883.62;;;9.86;53.50
78839;BME280;68405;47.190;27.558;2024-03-02T09:40:07;99884.39;;;9.83;53.97
78839;BME280;68405;47.190;27.558;2024-03-02T09:42:37;99888.27;;;9.87;54.16
78839;BME280;68405;47.190;27.558;2024-03-02T09:45:08;99882.44;;;9.85;50.83
78839;BME280;68405;47.190;27.558;2024-03-02T09:47:37;99881.19;;;9.86;51.15
78839;BME280;68405;47.190;27.558;2024-03-02T09:50:08;99880.58;;;9.83;51.51
78839;BME280;68405;47.190;27.558;2024-03-02T09:52:38;99878.96;;;9.91;52.04
78839;BME280;68405;47.190;27.558;2024-03-02T09:55:07;99881.25;;;9.95;52.29
78839;BME280;68405;47.190;27.558;2024-03-02T09:57:36;99883.23;;;9.92;52.64
78839;BME280;68405;47.190;27.558;2024-03-02T10:00:05;99881.61;;;9.95;52.21
78839;BME280;68405;47.190;27.558;2024-03-02T10:02:33;99879.73;;;9.99;52.81
78839;BME280;68405;47.190;27.558;2024-03-02T10:05:03;99881.25;;;10.06;52.52
78839;BME280;68405;47.190;27.558;2024-03-02T10:07:32;99880.18;;;10.18;53.22
78839;BME280;68405;47.190;27.558;2024-03-02T10:10:13;99875.79;;;10.29;52.75
78839;BME280;68405;47.190;27.558;2024-03-02T10:12:42;99872.80;;;10.31;52.70
78839;BME280;68405;47.190;27.558;2024-03-02T10:15:11;99871.90;;;10.38;52.41
78839;BME280;68405;47.190;27.558;2024-03-02T10:17:40;99868.35;;;10.41;52.39
78839;BME280;68405;47.190;27.558;2024-03-02T10:20:23;99864.44;;;10.43;52.30
78839;BME280;68405;47.190;27.558;2024-03-02T10:22:52;99860.95;;;10.48;52.54
78839;BME280;68405;47.190;27.558;2024-03-02T10:25:30;99854.79;;;10.56;52.23
78839;BME280;68405;47.190;27.558;2024-03-02T10:28:00;99850.95;;;10.62;50.64
78839;BME280;68405;47.190;27.558;2024-03-02T10:30:29;99849.91;;;10.71;51.30
78839;BME280;68405;47.190;27.558;2024-03-02T10:32:58;99845.98;;;10.84;52.23
78839;BME280;68405;47.190;27.558;2024-03-02T10:35:27;99840.66;;;10.97;50.89
78839;BME280;68405;47.190;27.558;2024-03-02T10:37:56;99836.92;;;10.99;50.79
78839;BME280;68405;47.190;27.558;2024-03-02T10:40:27;99841.20;;;11.15;51.88
78839;BME280;68405;47.190;27.558;2024-03-02T10:42:56;99837.52;;;11.25;50.64
78839;BME280;68405;47.190;27.558;2024-03-02T10:45:25;99836.16;;;11.29;50.23
78839;BME280;68405;47.190;27.558;2024-03-02T10:47:54;99835.70;;;11.45;51.66
78839;BME280;68405;47.190;27.558;2024-03-02T10:50:23;99827.52;;;11.59;50.45
78839;BME280;68405;47.190;27.558;2024-03-02T10:52:53;99829.23;;;11.55;49.74
78839;BME280;68405;47.190;27.558;2024-03-02T10:55:21;99828.11;;;11.71;50.14
78839;BME280;68405;47.190;27.558;2024-03-02T10:57:53;99828.20;;;11.73;49.17
78839;BME280;68405;47.190;27.558;2024-03-02T11:00:25;99827.78;;;11.74;48.87
78839;BME280;68405;47.190;27.558;2024-03-02T11:03:02;99830.13;;;11.86;50.21
78839;BME280;68405;47.190;27.558;2024-03-02T11:05:36;99833.17;;;12.01;51.06
78839;BME280;68405;47.190;27.558;2024-03-02T11:08:08;99835.29;;;12.13;49.45
78839;BME280;68405;47.190;27.558;2024-03-02T11:10:45;99837.83;;;12.19;49.92
78839;BME280;68405;47.190;27.558;2024-03-02T11:13:14;99837.69;;;12.23;47.99
78839;BME280;68405;47.190;27.558;2024-03-02T11:15:44;99835.38;;;12.23;49.93
78839;BME280;68405;47.190;27.558;2024-03-02T11:18:13;99837.65;;;12.27;50.68
78839;BME280;68405;47.190;27.558;2024-03-02T11:20:42;99827.87;;;12.28;47.68
78839;BME280;68405;47.190;27.558;2024-03-02T11:23:11;99827.70;;;12.32;49.94
78839;BME280;68405;47.190;27.558;2024-03-02T11:25:40;99830.27;;;12.37;50.08
78839;BME280;68405;47.190;27.558;2024-03-02T11:28:09;99831.42;;;12.47;49.46
78839;BME280;68405;47.190;27.558;2024-03-02T11:30:51;99828.95;;;12.52;49.59
78839;BME280;68405;47.190;27.558;2024-03-02T11:33:27;99827.94;;;12.55;49.29
78839;BME280;68405;47.190;27.558;2024-03-02T11:35:57;99824.50;;;12.54;48.42
78839;BME280;68405;47.190;27.558;2024-03-02T11:38:31;99820.61;;;12.59;49.39
78839;BME280;68405;47.190;27.558;2024-03-02T11:41:02;99817.18;;;12.66;49.55
78839;BME280;68405;47.190;27.558;2024-03-02T11:43:31;99811.13;;;12.65;46.47
78839;BME280;68405;47.190;27.558;2024-03-02T11:46:03;99811.23;;;12.59;47.09
78839;BME280;68405;47.190;27.558;2024-03-02T11:48:36;99811.63;;;12.50;45.14
78839;BME280;68405;47.190;27.558;2024-03-02T11:51:05;99813.89;;;12.50;47.90
78839;BME280;68405;47.190;27.558;2024-03-02T11:53:34;99812.65;;;12.50;47.68
78839;BME280;68405;47.190;27.558;2024-03-02T11:56:04;99811.98;;;12.46;48.60
78839;BME280;68405;47.190;27.558;2024-03-02T11:58:37;99811.10;;;12.46;48.62
78839;BME280;68405;47.190;27.558;2024-03-02T12:01:09;99814.36;;;12.51;48.55
78839;BME280;68405;47.190;27.558;2024-03-02T12:03:38;99810.16;;;12.51;46.24
78839;BME280;68405;47.190;27.558;2024-03-02T12:06:08;99807.94;;;12.42;45.00
78839;BME280;68405;47.190;27.558;2024-03-02T12:08:37;99808.83;;;12.46;45.25
78839;BME280;68405;47.190;27.558;2024-03-02T12:11:06;99809.77;;;12.52;46.45
78839;BME280;68405;47.190;27.558;2024-03-02T12:13:35;99806.97;;;12.68;47.87
78839;BME280;68405;47.190;27.558;2024-03-02T12:16:05;99804.85;;;12.85;48.20
78839;BME280;68405;47.190;27.558;2024-03-02T12:18:34;99804.30;;;12.97;47.64
78839;BME280;68405;47.190;27.558;2024-03-02T12:21:03;99806.26;;;13.00;47.92
78839;BME280;68405;47.190;27.558;2024-03-02T12:23:35;99804.59;;;12.87;44.64
78839;BME280;68405;47.190;27.558;2024-03-02T12:26:04;99806.98;;;12.76;45.27
78839;BME280;68405;47.190;27.558;2024-03-02T12:28:33;99806.35;;;12.75;46.69
78839;BME280;68405;47.190;27.558;2024-03-02T12:31:02;99804.52;;;12.76;45.70
78839;BME280;68405;47.190;27.558;2024-03-02T12:33:30;99802.55;;;12.70;46.97
78839;BME280;68405;47.190;27.558;2024-03-02T12:35:59;99809.30;;;12.67;46.96
78839;BME280;68405;47.190;27.558;2024-03-02T12:38:28;99806.71;;;12.58;46.93
78839;BME280;68405;47.190;27.558;2024-03-02T12:40:57;99810.23;;;12.53;46.87
78839;BME280;68405;47.190;27.558;2024-03-02T12:43:30;99808.33;;;12.45;46.63
78839;BME280;68405;47.190;27.558;2024-03-02T12:46:00;99810.02;;;12.26;44.73
78839;BME280;68405;47.190;27.558;2024-03-02T12:48:29;99807.00;;;12.28;45.89
78839;BME280;68405;47.190;27.558;2024-03-02T12:50:57;99808.56;;;12.19;45.79
78839;BME280;68405;47.190;27.558;2024-03-02T12:53:27;99809.25;;;12.07;45.61
78839;BME280;68405;47.190;27.558;2024-03-02T12:55:56;99805.80;;;11.98;46.07
78839;BME280;68405;47.190;27.558;2024-03-02T12:58:25;99808.16;;;12.04;46.57
78839;BME280;68405;47.190;27.558;2024-03-02T13:01:07;99803.79;;;12.05;46.59
78839;BME280;68405;47.190;27.558;2024-03-02T13:03:37;99807.45;;;12.00;46.06
78839;BME280;68405;47.190;27.558;2024-03-02T13:06:07;99804.00;;;11.82;46.26
78839;BME280;68405;47.190;27.558;2024-03-02T13:08:36;99805.48;;;11.66;46.09
78839;BME280;68405;47.190;27.558;2024-03-02T13:11:05;99806.80;;;11.64;46.61